»·PEaware :: N4565R KSTL-KPSP

N4565R :: KSTL-KPSP

FLIGHT INFORMATION

Flight Status: Arrived
Operator: Privately registered:
United States
More flights under this callsign
Pilot: Dean S. (16265)
Aircraft: CESSNA 441 CONQUEST 2
(C441)
More flights by this aircraft type
Origin: KSTL Lambert-St Louis Intl
United States
Destination: KPSP Palm Springs Intl
United States
More flights between these airports :: More routes between these airports
Route: DIRECT
File this flight plan on PilotEdge
Remarks:
Altitude:
(Current/Filed)
14,500ft
Speed:
(Current/Filed)
240kts
Departed: 30-Sep-17 05:05 PM
Arrived: 30-Sep-17 09:14 PM
Distance/Time
Traveled:
1293nm/4:09
Distance/Time
To Go:
Arrived

Flight Plot

Page will automatically refresh every two minutes.

Flight plan parsing failed; only flown route is shown


Map Options




Map Legend


Flown Route
Filed Route
Departure Airport
Arrival Airport
Navaid (VOR, NDB)
Fix

Horizontal Profiles

Position Reports

Time Latitude Longitude Heading Altitude Ground
Speed
30-Sep-17 17:08 38.511256 -94.140754 269 14428ft 292kts
30-Sep-17 17:09 38.510958 -94.244452 269 14428ft 292kts
30-Sep-17 17:10 38.510771 -94.348124 269 14427ft 292kts
30-Sep-17 17:11 38.510694 -94.452188 269 14419ft 292kts
30-Sep-17 17:12 38.510728 -94.555924 270 14417ft 292kts
30-Sep-17 17:13 38.510873 -94.659963 270 14416ft 292kts
30-Sep-17 17:14 38.511128 -94.763698 270 14411ft 292kts
30-Sep-17 17:15 38.511494 -94.867441 270 14408ft 292kts
30-Sep-17 17:16 38.511972 -94.971547 270 14397ft 292kts
30-Sep-17 17:17 38.512558 -95.075274 270 14393ft 292kts
30-Sep-17 17:18 38.513254 -95.179003 270 14390ft 292kts
30-Sep-17 17:19 38.514060 -95.283087 270 14390ft 292kts
30-Sep-17 17:20 38.514973 -95.386807 270 14389ft 292kts
30-Sep-17 17:21 38.515819 -95.473601 270 14388ft 292kts
30-Sep-17 17:22 38.516930 -95.577334 270 14386ft 292kts
30-Sep-17 17:23 38.518364 -95.698385 270 14380ft 292kts
30-Sep-17 17:24 38.513565 -95.784771 260 14377ft 292kts
30-Sep-17 17:25 38.497418 -95.904039 259 14377ft 292kts
30-Sep-17 17:26 38.485765 -95.989172 259 14378ft 292kts
30-Sep-17 17:27 38.471828 -96.091686 260 14378ft 292kts
30-Sep-17 17:28 38.458038 -96.193889 260 14378ft 292kts
30-Sep-17 17:29 38.444307 -96.296422 260 14378ft 292kts
30-Sep-17 17:30 38.430726 -96.398611 260 14376ft 292kts
30-Sep-17 17:31 38.417248 -96.500799 260 14374ft 292kts
30-Sep-17 17:32 38.403825 -96.603359 260 14371ft 292kts
30-Sep-17 17:33 38.390546 -96.705613 260 14366ft 292kts
30-Sep-17 17:34 38.377340 -96.808156 260 14357ft 292kts
30-Sep-17 17:35 38.347108 -96.903626 243 14350ft 291kts
30-Sep-17 17:36 38.311427 -96.996261 243 14352ft 292kts
30-Sep-17 17:37 38.275542 -97.089400 243 14354ft 292kts
30-Sep-17 17:38 38.239846 -97.182294 243 14356ft 292kts
30-Sep-17 17:39 38.214117 -97.280249 253 14356ft 292kts
30-Sep-17 17:40 38.191694 -97.379949 253 14352ft 292kts
30-Sep-17 17:41 38.169497 -97.479314 254 14349ft 292kts
30-Sep-17 17:42 38.147304 -97.579098 254 14342ft 292kts
30-Sep-17 17:43 38.125303 -97.678455 254 14335ft 293kts
30-Sep-17 17:44 38.103382 -97.777883 254 14331ft 292kts
30-Sep-17 17:45 38.081485 -97.877643 254 14330ft 292kts
30-Sep-17 17:46 38.059780 -97.977150 254 14329ft 292kts
30-Sep-17 17:47 38.038184 -98.076494 254 14330ft 292kts
30-Sep-17 17:48 38.016584 -98.175728 254 14328ft 291kts
30-Sep-17 17:49 37.995305 -98.274616 254 14327ft 292kts
30-Sep-17 17:50 37.973912 -98.374244 254 14326ft 292kts
30-Sep-17 17:51 37.952638 -98.473722 254 14325ft 292kts
30-Sep-17 17:52 37.931463 -98.573169 254 14324ft 292kts
30-Sep-17 17:53 37.910301 -98.672996 254 14325ft 292kts
30-Sep-17 17:54 37.889314 -98.772426 254 14325ft 292kts
30-Sep-17 17:55 37.868343 -98.872223 254 14323ft 293kts
30-Sep-17 17:56 37.847528 -98.971713 254 14321ft 293kts
30-Sep-17 17:57 37.826802 -99.071220 255 14319ft 293kts
30-Sep-17 17:58 37.806097 -99.171058 255 14315ft 293kts
30-Sep-17 17:59 37.785547 -99.270577 255 14312ft 293kts
30-Sep-17 18:00 37.765077 -99.370135 255 14312ft 293kts
30-Sep-17 18:01 37.744645 -99.469944 255 14312ft 293kts
30-Sep-17 18:02 37.724376 -99.569385 255 14307ft 293kts
30-Sep-17 18:03 37.704106 -99.669273 255 14304ft 293kts
30-Sep-17 18:04 37.684037 -99.768599 255 14303ft 293kts
30-Sep-17 18:05 37.663967 -99.868371 255 14301ft 293kts
30-Sep-17 18:06 37.643975 -99.968197 255 14301ft 293kts
30-Sep-17 18:07 37.624125 -100.067751 255 14300ft 293kts
30-Sep-17 18:08 37.604362 -100.167303 255 14300ft 293kts
30-Sep-17 18:09 37.584623 -100.267159 255 14299ft 293kts
30-Sep-17 18:10 37.565033 -100.366692 255 14298ft 293kts
30-Sep-17 18:11 37.545451 -100.466620 255 14296ft 293kts
30-Sep-17 18:12 37.526028 -100.566167 255 14296ft 293kts
30-Sep-17 18:13 37.506698 -100.665671 256 14297ft 293kts
30-Sep-17 18:14 37.487370 -100.765602 256 14296ft 293kts
30-Sep-17 18:15 37.468202 -100.865138 256 14298ft 293kts
30-Sep-17 18:16 37.449050 -100.965036 256 14300ft 293kts
30-Sep-17 18:17 37.430049 -101.064584 256 14305ft 293kts
30-Sep-17 18:18 37.411138 -101.164095 256 14307ft 293kts
30-Sep-17 18:19 37.392226 -101.264035 256 14307ft 293kts
30-Sep-17 18:20 37.373462 -101.363623 256 14307ft 293kts
30-Sep-17 18:21 37.354785 -101.463175 256 14306ft 293kts
30-Sep-17 18:22 37.336115 -101.563128 256 14303ft 293kts
30-Sep-17 18:23 37.317594 -101.662715 256 14301ft 293kts
30-Sep-17 18:24 37.299084 -101.762678 256 14296ft 293kts
30-Sep-17 18:25 37.280710 -101.862343 256 14293ft 293kts
30-Sep-17 18:26 37.262437 -101.961897 256 14293ft 293kts
30-Sep-17 18:27 37.244176 -102.061825 256 14290ft 293kts
30-Sep-17 18:28 37.226042 -102.161490 256 14289ft 293kts
30-Sep-17 18:29 37.207934 -102.261433 256 14287ft 293kts
30-Sep-17 18:30 37.189965 -102.361041 256 14285ft 293kts
30-Sep-17 18:31 37.172079 -102.460614 257 14283ft 293kts
30-Sep-17 18:32 37.154204 -102.560551 257 14282ft 293kts
30-Sep-17 18:33 37.136466 -102.660160 257 14282ft 293kts
30-Sep-17 18:34 37.118805 -102.759765 257 14284ft 293kts
30-Sep-17 18:35 37.101150 -102.859773 257 14288ft 293kts
30-Sep-17 18:36 37.083648 -102.959353 257 14293ft 293kts
30-Sep-17 18:37 37.066174 -103.059208 257 14299ft 293kts
30-Sep-17 18:38 37.048817 -103.158821 257 14304ft 293kts
30-Sep-17 18:39 37.031532 -103.258450 257 14305ft 293kts
30-Sep-17 18:40 37.017171 -103.358969 262 14317ft 293kts
30-Sep-17 18:41 37.008264 -103.460238 263 14319ft 293kts
30-Sep-17 18:42 36.999597 -103.561898 263 14319ft 293kts
30-Sep-17 18:43 36.991047 -103.663129 263 14328ft 293kts
30-Sep-17 18:44 36.982563 -103.764488 264 14323ft 293kts
30-Sep-17 18:45 36.974131 -103.866145 264 14321ft 293kts
30-Sep-17 18:46 36.965803 -103.967483 264 14320ft 293kts
30-Sep-17 18:47 36.957551 -104.068838 264 14320ft 293kts
30-Sep-17 18:48 36.949347 -104.170513 264 14319ft 293kts
30-Sep-17 18:49 36.941248 -104.271789 264 14319ft 293kts
30-Sep-17 18:50 36.933198 -104.373379 264 14353ft 292kts
30-Sep-17 18:51 36.925252 -104.474566 264 14367ft 293kts
30-Sep-17 18:52 36.917376 -104.575800 264 14384ft 293kts
30-Sep-17 18:53 36.909560 -104.677194 264 14404ft 292kts
30-Sep-17 18:54 36.901833 -104.778379 264 14425ft 293kts
30-Sep-17 18:55 36.894179 -104.879552 264 14444ft 293kts
30-Sep-17 18:56 36.886574 -104.981061 264 14459ft 293kts
30-Sep-17 18:57 36.879061 -105.082294 264 14471ft 293kts
30-Sep-17 18:58 36.871594 -105.183873 264 14482ft 292kts
30-Sep-17 18:59 36.861436 -105.284464 261 14496ft 293kts
30-Sep-17 19:00 36.848620 -105.384725 260 14488ft 292kts
30-Sep-17 19:01 36.834337 -105.484668 257 14485ft 292kts
30-Sep-17 19:02 36.816082 -105.583605 256 14482ft 293kts
30-Sep-17 19:03 36.797584 -105.682811 256 14478ft 293kts
30-Sep-17 19:04 36.779306 -105.781789 256 14472ft 293kts
30-Sep-17 19:05 36.761085 -105.880886 256 14471ft 293kts
30-Sep-17 19:06 36.742880 -105.980243 256 14473ft 293kts
30-Sep-17 19:07 36.724793 -106.079313 256 14475ft 293kts
30-Sep-17 19:08 36.707946 -106.178777 267 14477ft 292kts
30-Sep-17 19:09 36.716289 -106.278924 268 14484ft 290kts
30-Sep-17 19:10 36.708520 -106.379315 263 14492ft 292kts
30-Sep-17 19:11 36.699111 -106.480405 263 14499ft 293kts
30-Sep-17 19:12 36.689740 -106.581505 263 14429ft 294kts
30-Sep-17 19:13 36.680541 -106.681412 263 14428ft 286kts
30-Sep-17 19:14 36.674627 -106.745950 263 14429ft 283kts
30-Sep-17 19:15 36.668243 -106.815931 263 14434ft 281kts
30-Sep-17 19:16 36.666567 -106.834367 263 14464ft 281kts
30-Sep-17 19:17 36.638654 -106.920569 217 14497ft 281kts
30-Sep-17 19:18 36.573020 -106.973600 211 14491ft 282kts
30-Sep-17 19:19 36.506093 -107.024842 211 14487ft 281kts
30-Sep-17 19:20 36.439424 -107.075838 211 14432ft 282kts
30-Sep-17 19:21 36.375424 -107.131512 229 14421ft 282kts
30-Sep-17 19:22 36.332073 -107.212702 242 14419ft 282kts
30-Sep-17 19:23 36.304850 -107.303464 255 14417ft 281kts
30-Sep-17 19:24 36.286441 -107.397945 256 14415ft 281kts
30-Sep-17 19:25 36.268474 -107.492480 256 14371ft 282kts
30-Sep-17 19:26 36.249660 -107.586830 254 14357ft 282kts
30-Sep-17 19:27 36.229126 -107.681012 254 14340ft 282kts
30-Sep-17 19:28 36.208681 -107.774746 254 14336ft 282kts
30-Sep-17 19:29 36.188218 -107.868791 254 14330ft 282kts
30-Sep-17 19:30 36.167875 -107.962519 254 14328ft 282kts
30-Sep-17 19:31 36.147582 -108.056242 254 14328ft 282kts
30-Sep-17 19:32 36.127283 -108.150215 254 14331ft 282kts
30-Sep-17 19:33 36.107107 -108.243827 254 14331ft 282kts
30-Sep-17 19:34 36.086910 -108.337756 254 14323ft 281kts
30-Sep-17 19:35 36.070249 -108.415404 254 14325ft 280kts
30-Sep-17 19:36 36.050356 -108.508311 254 14327ft 279kts
30-Sep-17 19:37 36.030368 -108.601876 255 14329ft 282kts
30-Sep-17 19:38 36.010414 -108.695493 255 14335ft 282kts
30-Sep-17 19:39 35.990520 -108.789042 255 14350ft 282kts
30-Sep-17 19:40 35.970580 -108.883026 255 14345ft 282kts
30-Sep-17 19:41 35.950761 -108.976651 255 14348ft 282kts
30-Sep-17 19:42 35.930917 -109.070615 255 14350ft 282kts
30-Sep-17 19:43 35.911191 -109.164228 255 14353ft 282kts
30-Sep-17 19:44 35.891503 -109.257862 255 14353ft 282kts
30-Sep-17 19:45 35.871795 -109.351794 255 14352ft 282kts
30-Sep-17 19:46 35.852190 -109.445442 255 14349ft 282kts
30-Sep-17 19:47 35.832623 -109.539108 255 14339ft 282kts
30-Sep-17 19:48 35.813040 -109.633059 255 14333ft 282kts
30-Sep-17 19:49 35.793569 -109.726674 255 14326ft 282kts
30-Sep-17 19:50 35.774080 -109.820603 255 14323ft 282kts
30-Sep-17 19:51 35.754706 -109.914182 255 14316ft 282kts
30-Sep-17 19:52 35.735360 -110.007816 255 14309ft 282kts
30-Sep-17 19:53 35.715998 -110.101727 255 14302ft 282kts
30-Sep-17 19:54 35.696746 -110.195303 255 14296ft 282kts
30-Sep-17 19:55 35.677462 -110.289227 255 14291ft 282kts
30-Sep-17 19:56 35.658290 -110.382806 255 14286ft 282kts
30-Sep-17 19:57 35.639170 -110.476318 255 14292ft 282kts
30-Sep-17 19:58 35.620019 -110.570177 255 14289ft 282kts
30-Sep-17 19:59 35.600969 -110.663736 255 14289ft 282kts
30-Sep-17 20:00 35.581992 -110.757132 255 14318ft 282kts
30-Sep-17 20:01 35.562975 -110.850920 255 14322ft 282kts
30-Sep-17 20:02 35.544057 -110.944419 255 14325ft 282kts
30-Sep-17 20:03 35.525114 -111.038238 255 14330ft 282kts
30-Sep-17 20:04 35.506283 -111.131691 255 14337ft 282kts
30-Sep-17 20:05 35.487484 -111.225166 255 14345ft 282kts
30-Sep-17 20:06 35.468663 -111.318943 255 14353ft 282kts
30-Sep-17 20:07 35.449943 -111.412391 255 14361ft 282kts
30-Sep-17 20:08 35.431198 -111.506152 255 14360ft 282kts
30-Sep-17 20:09 35.412552 -111.599599 255 14366ft 282kts
30-Sep-17 20:10 35.393942 -111.693054 256 14375ft 282kts
30-Sep-17 20:11 35.375313 -111.786790 256 14379ft 282kts
30-Sep-17 20:12 35.356774 -111.880256 256 14378ft 282kts
30-Sep-17 20:13 35.338272 -111.973716 256 14378ft 282kts
30-Sep-17 20:14 35.319742 -112.067491 256 14378ft 282kts
30-Sep-17 20:15 35.301317 -112.160914 256 14379ft 282kts
30-Sep-17 20:16 35.282861 -112.254671 256 14379ft 282kts
30-Sep-17 20:17 35.264503 -112.348093 256 14377ft 282kts
30-Sep-17 20:18 35.246168 -112.441577 256 14365ft 283kts
30-Sep-17 20:19 35.227804 -112.535383 256 14353ft 283kts
30-Sep-17 20:20 35.209537 -112.628861 256 14339ft 283kts
30-Sep-17 20:21 35.191299 -112.722362 256 14319ft 283kts
30-Sep-17 20:22 35.173031 -112.816192 256 14302ft 283kts
30-Sep-17 20:23 35.154864 -112.909682 256 14285ft 283kts
30-Sep-17 20:24 35.136667 -113.003493 256 14267ft 283kts
30-Sep-17 20:25 35.082805 -113.061923 191 14255ft 283kts
30-Sep-17 20:26 35.005029 -113.075744 185 14249ft 283kts
30-Sep-17 20:27 34.926266 -113.081361 181 14248ft 283kts
30-Sep-17 20:28 34.853960 -113.108729 224 14246ft 283kts
30-Sep-17 20:29 34.806705 -113.185095 235 14231ft 283kts
30-Sep-17 20:30 34.771014 -113.270614 243 14215ft 283kts
30-Sep-17 20:31 34.734491 -113.355328 240 14197ft 283kts
30-Sep-17 20:32 34.694210 -113.437882 237 14180ft 283kts
30-Sep-17 20:33 34.650923 -113.517719 235 14161ft 283kts
30-Sep-17 20:34 34.604297 -113.594935 232 14112ft 283kts
30-Sep-17 20:35 34.554398 -113.669239 229 14077ft 284kts
30-Sep-17 20:36 34.501451 -113.740164 226 14040ft 283kts
30-Sep-17 20:37 34.445369 -113.807561 222 14030ft 283kts
30-Sep-17 20:38 34.386617 -113.870966 220 14022ft 283kts
30-Sep-17 20:39 34.325121 -113.930454 216 14017ft 283kts
30-Sep-17 20:40 34.260877 -113.985877 213 14015ft 283kts
30-Sep-17 20:41 34.194351 -114.036767 210 14012ft 283kts
30-Sep-17 20:42 34.125436 -114.083343 207 14011ft 283kts
30-Sep-17 20:43 34.054842 -114.125387 204 14009ft 283kts
30-Sep-17 20:44 33.982543 -114.162834 201 14006ft 283kts
30-Sep-17 20:45 33.908354 -114.195560 198 14003ft 283kts
30-Sep-17 20:46 33.840322 -114.237587 235 14001ft 283kts
30-Sep-17 20:47 33.805581 -114.322292 251 13994ft 283kts
30-Sep-17 20:48 33.804067 -114.416715 271 13985ft 283kts
30-Sep-17 20:49 33.804271 -114.511331 268 13983ft 283kts
30-Sep-17 20:50 33.800472 -114.606145 265 13982ft 283kts
30-Sep-17 20:51 33.792625 -114.700262 264 13983ft 283kts
30-Sep-17 20:52 33.796161 -114.794876 277 13983ft 283kts
30-Sep-17 20:53 33.808208 -114.888357 279 13986ft 283kts
30-Sep-17 20:54 33.796264 -114.979046 241 13990ft 283kts
30-Sep-17 20:55 33.761325 -115.064120 243 13992ft 283kts
30-Sep-17 20:56 33.742843 -115.155200 258 13997ft 283kts
30-Sep-17 20:57 33.729744 -115.248427 262 13884ft 284kts
30-Sep-17 20:58 33.717938 -115.341781 257 12886ft 282kts
30-Sep-17 20:59 33.702515 -115.434035 258 11887ft 281kts
30-Sep-17 21:00 33.686235 -115.525789 257 10881ft 277kts
30-Sep-17 21:01 33.671181 -115.613218 259 9097ft 260kts
30-Sep-17 21:02 33.658001 -115.697506 259 7299ft 254kts
30-Sep-17 21:03 33.645508 -115.780556 259 5496ft 250kts
30-Sep-17 21:04 33.631863 -115.861156 257 4009ft 235kts
30-Sep-17 21:05 33.618686 -115.933158 256 3951ft 213kts
30-Sep-17 21:06 33.607164 -116.002022 259 3945ft 203kts
30-Sep-17 21:07 33.598043 -116.068654 267 3942ft 202kts
30-Sep-17 21:08 33.616737 -116.131942 292 3940ft 202kts
30-Sep-17 21:09 33.638669 -116.192528 296 3941ft 180kts
30-Sep-17 21:10 33.660956 -116.241834 298 3943ft 161kts
30-Sep-17 21:11 33.682721 -116.288643 298 3958ft 159kts
30-Sep-17 21:12 33.703990 -116.333765 300 3935ft 143kts
30-Sep-17 21:13 33.721795 -116.377327 292 3291ft 137kts
30-Sep-17 21:14 33.736552 -116.420831 299 2845ft 142kts
30-Sep-17 21:15 33.766586 -116.448426 323 1983ft 128kts
30-Sep-17 21:16 33.794939 -116.473721 323 1355ft 117kts
30-Sep-17 21:17 33.820888 -116.496867 324 588ft 108kts
30-Sep-17 21:18 33.829465 -116.503503 85 481ft 9kts
30-Sep-17 21:19 33.826759 -116.500235 305 481ft 3kts
30-Sep-17 21:20 33.826848 -116.500380 306 481ft 0kts
30-Sep-17 21:21 33.826870 -116.500415 313 481ft 0kts
30-Sep-17 21:22 33.826870 -116.500415 313 481ft 0kts
30-Sep-17 21:23 33.827123 -116.500740 312 481ft 0kts
30-Sep-17 21:24 33.827123 -116.500740 312 481ft 0kts
30-Sep-17 21:25 33.827123 -116.500740 312 481ft 0kts
30-Sep-17 21:26 33.827123 -116.500740 312 481ft 0kts
30-Sep-17 21:27 33.827123 -116.500740 312 481ft 0kts
30-Sep-17 21:28 33.827123 -116.500740 312 481ft 0kts
30-Sep-17 21:29 33.827123 -116.500740 312 481ft 0kts
30-Sep-17 21:30 33.827123 -116.500740 312 481ft 0kts
30-Sep-17 21:31 33.827123 -116.500740 312 481ft 0kts
30-Sep-17 21:32 33.827123 -116.500740 312 481ft 0kts

Navigation Log

Ident Type
Flight plan parsing failed, navigation log unavailable